Time;durP1;ratioP1;P1;durP2;ratioP2;P2;SDS_P1;SDS_P2;PMS_P1;PMS_P2;Temp;Humidity;BMP_temperature;BMP_pressure;BME280_temperature;BME280_humidity;BME280_pressure;Samples;Min_cycle;Max_cycle;Signal;HPM_P1;HPM_P2
2022/08/20 00:00:24;;;;;;;16.20;6.25;;;19.40;99.90;;;;;;5022845;28;20113;-69
2022/08/20 00:02:54;;;;;;;15.68;6.55;;;19.40;99.90;;;;;;5039203;28;20404;-68
2022/08/20 00:05:27;;;;;;;15.18;5.97;;;19.30;99.90;;;;;;5033754;28;20045;-69
2022/08/20 00:07:53;;;;;;;11.57;5.80;;;19.20;99.90;;;;;;5047008;28;20563;-69
2022/08/20 00:10:20;;;;;;;13.73;6.20;;;19.20;99.90;;;;;;5047599;28;20041;-69
2022/08/20 00:12:48;;;;;;;10.55;5.78;;;19.20;99.90;;;;;;5050230;28;20516;-69
2022/08/20 00:15:18;;;;;;;16.02;6.10;;;19.20;99.90;;;;;;5028039;28;20483;-69
2022/08/20 00:17:43;;;;;;;18.92;5.75;;;19.20;99.90;;;;;;5043061;28;20038;-69
2022/08/20 00:20:11;;;;;;;12.82;6.57;;;19.20;99.90;;;;;;5049288;28;20047;-69
2022/08/20 00:22:37;;;;;;;13.13;6.32;;;19.20;99.90;;;;;;5049099;28;20045;-70
2022/08/20 00:25:05;;;;;;;13.95;5.50;;;19.20;99.90;;;;;;5049995;28;20037;-69
2022/08/20 00:27:31;;;;;;;15.23;5.60;;;19.20;99.90;;;;;;5034833;28;20135;-69
2022/08/20 00:29:57;;;;;;;11.52;5.70;;;19.20;99.90;;;;;;5030604;28;20571;-68
2022/08/20 00:32:22;;;;;;;11.38;5.25;;;19.20;99.90;;;;;;5053133;28;20048;-68
2022/08/20 00:34:48;;;;;;;19.88;6.63;;;19.20;99.90;;;;;;5050261;28;20044;-69
2022/08/20 00:37:14;;;;;;;11.93;5.38;;;19.20;99.90;;;;;;5049471;28;20454;-69
2022/08/20 00:39:39;;;;;;;12.00;5.63;;;19.20;99.90;;;;;;5055325;28;20072;-68
2022/08/20 00:42:06;;;;;;;12.55;5.30;;;19.20;99.90;;;;;;5057525;28;20037;-70
2022/08/20 00:44:32;;;;;;;14.68;5.80;;;19.20;99.90;;;;;;5049276;28;20037;-69
2022/08/20 00:46:58;;;;;;;13.45;5.00;;;19.20;99.90;;;;;;5049131;28;20380;-69
2022/08/20 00:49:30;;;;;;;15.43;5.28;;;19.20;99.90;;;;;;5036916;28;20033;-68
2022/08/20 00:52:14;;;;;;;10.85;4.90;;;19.20;99.90;;;;;;5050631;28;20511;-68
2022/08/20 00:54:45;;;;;;;13.88;5.45;;;19.20;99.90;;;;;;5032162;28;20098;-69
2022/08/20 00:57:29;;;;;;;13.80;6.18;;;19.20;99.90;;;;;;5050406;28;20041;-69
2022/08/20 00:59:57;;;;;;;18.70;5.63;;;19.20;99.90;;;;;;5047780;28;20049;-68
2022/08/20 01:02:26;;;;;;;11.68;5.40;;;19.20;99.90;;;;;;5068189;28;20036;-69
2022/08/20 01:04:54;;;;;;;12.13;5.32;;;19.10;99.90;;;;;;5067507;28;20098;-68
2022/08/20 01:07:26;;;;;;;15.65;5.55;;;19.10;99.90;;;;;;5064170;28;20076;-68
2022/08/20 01:09:52;;;;;;;17.27;6.60;;;19.10;99.90;;;;;;5053901;28;20052;-69
2022/08/20 01:12:19;;;;;;;16.88;6.03;;;19.00;99.90;;;;;;5070578;28;20094;-69
2022/08/20 01:14:46;;;;;;;17.40;6.40;;;19.10;99.90;;;;;;5069745;28;20037;-68
2022/08/20 01:17:19;;;;;;;14.40;6.05;;;19.10;99.90;;;;;;5081307;28;20046;-69
2022/08/20 01:19:50;;;;;;;12.60;5.75;;;19.00;99.90;;;;;;5063330;28;20099;-69
2022/08/20 01:25:20;;;;;;;11.82;5.43;;;19.00;99.90;;;;;;5051046;28;20114;-69
2022/08/20 01:27:46;;;;;;;13.70;6.18;;;18.90;99.90;;;;;;5070481;28;20048;-68
2022/08/20 01:30:12;;;;;;;20.65;6.38;;;18.80;99.90;;;;;;5051985;28;20115;-68
2022/08/20 01:32:38;;;;;;;14.60;5.78;;;18.80;99.90;;;;;;5069961;28;20124;-69
2022/08/20 01:35:04;;;;;;;16.63;6.03;;;18.70;99.90;;;;;;5036064;28;20048;-69
2022/08/20 01:37:30;;;;;;;19.88;6.57;;;18.80;99.90;;;;;;5048272;28;20483;-69
2022/08/20 01:39:56;;;;;;;16.88;5.57;;;18.70;99.90;;;;;;5069307;28;20047;-68
2022/08/20 01:42:30;;;;;;;13.68;6.28;;;18.80;99.90;;;;;;5069279;28;20546;-69
2022/08/20 01:44:56;;;;;;;20.17;6.40;;;18.70;99.90;;;;;;5067727;28;20083;-68
2022/08/20 01:47:30;;;;;;;13.73;6.20;;;18.70;99.90;;;;;;5050313;28;20087;-68
2022/08/20 01:49:59;;;;;;;13.30;6.00;;;18.60;99.90;;;;;;5070336;28;20040;-68
2022/08/20 01:52:46;;;;;;;14.70;5.78;;;18.60;99.90;;;;;;5073656;28;20083;-68
2022/08/20 01:55:12;;;;;;;19.50;5.63;;;18.60;99.90;;;;;;5067804;28;20040;-68
2022/08/20 01:57:38;;;;;;;23.45;6.25;;;18.50;99.90;;;;;;5067761;28;20090;-68
2022/08/20 02:00:08;;;;;;;14.25;5.60;;;18.50;99.90;;;;;;5071544;28;20049;-69
2022/08/20 02:02:34;;;;;;;19.33;6.45;;;18.50;99.90;;;;;;5073492;28;20090;-68
2022/08/20 02:05:00;;;;;;;11.20;5.43;;;18.40;99.90;;;;;;5053438;28;20075;-68
2022/08/20 02:07:26;;;;;;;16.75;6.35;;;18.30;99.90;;;;;;5050216;28;20067;-68
2022/08/20 02:09:51;;;;;;;11.70;5.30;;;18.40;99.90;;;;;;5072249;28;20067;-68
2022/08/20 02:12:17;;;;;;;14.68;6.15;;;18.40;99.90;;;;;;5052451;28;20044;-67
2022/08/20 02:14:47;;;;;;;18.27;5.75;;;18.40;99.90;;;;;;5070078;28;20113;-68
2022/08/20 02:17:13;;;;;;;17.95;6.05;;;18.30;99.90;;;;;;5070530;28;20048;-68
2022/08/20 02:19:44;;;;;;;13.45;6.00;;;18.40;99.90;;;;;;5055954;28;20068;-69
2022/08/20 02:22:46;;;;;;;13.30;6.35;;;18.30;99.90;;;;;;5072233;28;20040;-69
2022/08/20 02:25:14;;;;;;;14.25;5.72;;;18.30;99.90;;;;;;5050644;28;20116;-68
2022/08/20 02:27:44;;;;;;;14.93;5.90;;;18.20;99.90;;;;;;5072942;28;20174;-68
2022/08/20 02:30:16;;;;;;;13.00;5.50;;;18.30;99.90;;;;;;5063470;28;20136;-70
2022/08/20 02:32:41;;;;;;;22.67;6.55;;;18.20;99.90;;;;;;5074766;28;20091;-69
2022/08/20 02:35:09;;;;;;;14.98;5.95;;;18.20;99.90;;;;;;5073934;28;20579;-69
2022/08/20 02:37:36;;;;;;;13.57;5.95;;;18.20;99.90;;;;;;5071663;28;20115;-69
2022/08/20 02:40:04;;;;;;;15.50;6.35;;;18.20;99.90;;;;;;5052899;28;20047;-69
2022/08/20 02:42:30;;;;;;;12.45;5.55;;;18.10;99.90;;;;;;5070447;28;20111;-68
2022/08/20 02:44:57;;;;;;;15.77;5.78;;;18.10;99.90;;;;;;5071387;28;20075;-69
2022/08/20 02:47:24;;;;;;;14.90;5.72;;;18.00;99.90;;;;;;5053064;28;21510;-69
2022/08/20 02:49:49;;;;;;;11.18;5.88;;;17.90;99.90;;;;;;5068820;28;20055;-69
2022/08/20 02:52:15;;;;;;;12.15;5.50;;;17.90;99.90;;;;;;5047179;28;20037;-69
2022/08/20 02:54:41;;;;;;;18.80;5.10;;;17.90;99.90;;;;;;5053271;28;20495;-69
2022/08/20 02:57:12;;;;;;;13.88;4.88;;;17.90;99.90;;;;;;5048589;28;20136;-68
2022/08/20 02:59:37;;;;;;;14.88;5.22;;;17.80;99.90;;;;;;5062457;28;20052;-68
2022/08/20 03:02:03;;;;;;;15.98;5.28;;;17.80;99.90;;;;;;5052653;28;20053;-69
2022/08/20 03:04:29;;;;;;;13.90;4.50;;;17.80;99.90;;;;;;5051207;28;20045;-67
2022/08/20 03:06:56;;;;;;;13.10;4.55;;;17.70;99.90;;;;;;5051716;28;20033;-68
2022/08/20 03:09:22;;;;;;;12.55;5.00;;;17.70;99.90;;;;;;5050860;28;20465;-67
2022/08/20 03:11:48;;;;;;;13.40;4.43;;;17.60;99.90;;;;;;5051585;28;20542;-68
2022/08/20 03:14:13;;;;;;;10.88;3.90;;;17.60;99.90;;;;;;5027169;28;20042;-67
2022/08/20 03:16:39;;;;;;;12.82;3.80;;;17.60;99.90;;;;;;5044079;28;20045;-68
2022/08/20 03:19:05;;;;;;;14.30;4.00;;;17.50;99.90;;;;;;5033689;28;20488;-68
2022/08/20 03:21:31;;;;;;;13.43;4.50;;;17.50;99.90;;;;;;5035362;28;20049;-68
2022/08/20 03:23:56;;;;;;;17.70;3.67;;;17.60;99.90;;;;;;5052283;28;20496;-70
2022/08/20 03:26:22;;;;;;;11.93;3.72;;;17.60;99.90;;;;;;5048483;28;20089;-68
2022/08/20 03:28:48;;;;;;;16.67;3.47;;;17.50;99.90;;;;;;5041259;28;20123;-69
2022/08/20 03:31:14;;;;;;;14.85;3.55;;;17.50;99.90;;;;;;5050453;28;20044;-68
2022/08/20 03:33:40;;;;;;;12.63;3.55;;;17.50;99.90;;;;;;5046510;28;20037;-68
2022/08/20 03:36:06;;;;;;;13.18;3.22;;;17.40;99.90;;;;;;5052414;28;20037;-68
2022/08/20 03:38:32;;;;;;;10.85;3.35;;;17.40;99.90;;;;;;5052092;28;20489;-68
2022/08/20 03:40:58;;;;;;;15.85;3.55;;;17.40;99.90;;;;;;5050702;28;20045;-68
2022/08/20 03:43:24;;;;;;;8.10;2.72;;;17.40;99.90;;;;;;5033111;28;20366;-68
2022/08/20 03:45:50;;;;;;;8.45;2.63;;;17.30;99.90;;;;;;5051919;28;20045;-69
2022/08/20 03:48:18;;;;;;;12.05;3.20;;;17.30;99.90;;;;;;5039131;28;20052;-69
2022/08/20 03:50:45;;;;;;;14.93;3.70;;;17.30;99.90;;;;;;5048894;28;20040;-68
2022/08/20 03:53:12;;;;;;;12.75;3.20;;;17.30;99.90;;;;;;5050734;28;20097;-69
2022/08/20 03:55:39;;;;;;;17.87;4.03;;;17.20;99.90;;;;;;5046767;28;20044;-69
2022/08/20 03:58:08;;;;;;;11.00;3.45;;;17.20;99.90;;;;;;5049764;28;20288;-68
2022/08/20 04:00:41;;;;;;;12.90;3.00;;;17.20;99.90;;;;;;5063084;28;20092;-68
2022/08/20 04:03:07;;;;;;;11.77;2.85;;;17.20;99.90;;;;;;5046897;28;20049;-69
2022/08/20 04:05:35;;;;;;;15.00;2.80;;;17.20;99.90;;;;;;5045764;28;20056;-69
2022/08/20 04:08:01;;;;;;;;;;;17.20;99.90;;;;;;5047585;28;20041;-69
2022/08/20 04:10:28;;;;;;;10.13;2.95;;;17.10;99.90;;;;;;5061410;28;19932;-68
2022/08/20 04:12:53;;;;;;;8.43;2.92;;;17.10;99.90;;;;;;5052967;28;20120;-69
2022/08/20 04:15:23;;;;;;;11.10;2.90;;;17.10;99.90;;;;;;5065862;28;20155;-69
2022/08/20 04:17:49;;;;;;;12.77;3.50;;;17.10;99.90;;;;;;5054981;28;20105;-68
2022/08/20 04:20:21;;;;;;;18.08;3.20;;;17.10;99.90;;;;;;5052005;28;20049;-68
2022/08/20 04:22:47;;;;;;;16.25;3.15;;;17.10;99.90;;;;;;5046780;28;20037;-68
2022/08/20 04:25:12;;;;;;;12.35;3.10;;;17.10;99.90;;;;;;5049811;28;20522;-68
2022/08/20 04:27:39;;;;;;;9.18;2.65;;;17.00;99.90;;;;;;5042665;28;20379;-69
2022/08/20 04:30:09;;;;;;;13.57;2.75;;;17.10;99.90;;;;;;5051410;28;20488;-69
2022/08/20 04:32:40;;;;;;;13.02;3.08;;;17.00;99.90;;;;;;5057761;28;20166;-69
2022/08/20 04:35:10;;;;;;;9.82;3.00;;;17.00;99.90;;;;;;5055050;28;20036;-69
2022/08/20 04:37:38;;;;;;;14.63;3.15;;;17.00;99.90;;;;;;5050385;28;20040;-69
2022/08/20 04:42:54;;;;;;;9.90;2.80;;;16.90;99.90;;;;;;5045943;28;20110;-69
2022/08/20 04:45:20;;;;;;;11.10;3.08;;;16.90;99.90;;;;;;5022523;28;20060;-69
2022/08/20 04:47:47;;;;;;;10.35;2.83;;;16.90;99.90;;;;;;5056590;28;20086;-68
2022/08/20 04:50:13;;;;;;;14.07;2.70;;;16.90;99.90;;;;;;5043636;28;20083;-69
2022/08/20 04:52:39;;;;;;;9.07;2.28;;;16.90;99.90;;;;;;5041086;28;20431;-69
2022/08/20 04:55:06;;;;;;;7.78;2.65;;;16.90;99.90;;;;;;5043130;28;20045;-68
2022/08/20 04:57:35;;;;;;;15.68;2.67;;;16.90;99.90;;;;;;5043201;28;20049;-69
2022/08/20 05:00:01;;;;;;;11.27;2.58;;;16.90;99.90;;;;;;5054502;28;20145;-68
2022/08/20 05:02:26;;;;;;;12.27;2.65;;;16.90;99.90;;;;;;5063727;28;20060;-69
2022/08/20 05:04:52;;;;;;;15.65;2.70;;;16.90;99.90;;;;;;5053241;28;20037;-68
2022/08/20 05:07:17;;;;;;;10.70;3.05;;;16.90;99.90;;;;;;5070037;28;20037;-69
2022/08/20 05:09:44;;;;;;;10.60;2.50;;;16.90;99.90;;;;;;5069439;28;20115;-68
2022/08/20 05:12:11;;;;;;;11.23;2.70;;;16.90;99.90;;;;;;5052375;28;20037;-68
2022/08/20 05:14:36;;;;;;;11.02;2.92;;;16.90;99.90;;;;;;5029027;28;20043;-68
2022/08/20 05:17:05;;;;;;;13.52;3.08;;;16.90;99.90;;;;;;5060164;28;20048;-69
2022/08/20 05:19:33;;;;;;;12.68;2.78;;;16.80;99.90;;;;;;5070403;28;20042;-68
2022/08/20 05:21:59;;;;;;;9.88;2.50;;;16.80;99.90;;;;;;5070924;28;20055;-68
2022/08/20 05:24:25;;;;;;;12.70;3.08;;;16.70;99.90;;;;;;5070722;28;20049;-69
2022/08/20 05:26:53;;;;;;;8.73;2.15;;;16.70;99.90;;;;;;5068884;28;20087;-68
2022/08/20 05:29:20;;;;;;;9.80;2.63;;;16.70;99.90;;;;;;5074651;28;20047;-68
2022/08/20 05:31:46;;;;;;;14.82;2.80;;;16.60;99.90;;;;;;5070664;28;20388;-69
2022/08/20 05:34:12;;;;;;;13.05;2.45;;;16.60;99.90;;;;;;5074267;28;20070;-68
2022/08/20 05:36:42;;;;;;;12.10;2.63;;;16.60;99.90;;;;;;5054832;28;20084;-69
2022/08/20 05:39:09;;;;;;;7.25;2.28;;;16.50;99.90;;;;;;5073856;28;20044;-69
2022/08/20 05:41:36;;;;;;;10.63;2.63;;;16.50;99.90;;;;;;5074270;28;20036;-70
2022/08/20 05:44:02;;;;;;;14.47;2.83;;;16.60;99.90;;;;;;5073482;28;20051;-69
2022/08/20 05:46:30;;;;;;;9.52;2.40;;;16.60;99.90;;;;;;5054749;28;20044;-69
2022/08/20 05:48:55;;;;;;;10.82;2.53;;;16.60;99.90;;;;;;5065802;28;20140;-69
2022/08/20 05:51:21;;;;;;;14.32;2.80;;;16.60;99.90;;;;;;5073544;28;20119;-69
2022/08/20 05:53:47;;;;;;;9.60;2.17;;;16.70;99.90;;;;;;5062609;28;20079;-69
2022/08/20 05:56:13;;;;;;;10.43;2.78;;;16.70;99.90;;;;;;5074313;28;20055;-69
2022/08/20 05:58:39;;;;;;;7.53;2.10;;;16.80;99.90;;;;;;5054587;28;20182;-69
2022/08/20 06:01:04;;;;;;;11.50;2.25;;;16.80;99.90;;;;;;5045924;28;20046;-69
2022/08/20 06:06:14;;;;;;;7.43;1.98;;;17.00;99.90;;;;;;5052641;28;20056;-69
2022/08/20 06:08:40;;;;;;;9.48;2.28;;;17.10;99.90;;;;;;5050469;28;20045;-69
2022/08/20 06:11:07;;;;;;;11.88;2.67;;;17.20;99.90;;;;;;5047272;28;20048;-69
2022/08/20 06:13:33;;;;;;;10.70;2.30;;;17.20;99.90;;;;;;5018513;28;20083;-68
2022/08/20 06:16:00;;;;;;;9.05;2.00;;;17.30;99.90;;;;;;5015348;28;20088;-69
2022/08/20 06:18:26;;;;;;;12.05;2.63;;;17.50;99.90;;;;;;5053079;28;20065;-68
2022/08/20 06:20:52;;;;;;;7.40;2.05;;;17.60;99.90;;;;;;5052232;28;20496;-69
2022/08/20 06:23:18;;;;;;;10.48;2.22;;;17.80;99.90;;;;;;5052176;28;20480;-68
2022/08/20 06:25:44;;;;;;;10.75;2.55;;;18.10;99.90;;;;;;5053941;28;20036;-68
2022/08/20 06:28:12;;;;;;;5.65;2.05;;;18.60;99.90;;;;;;5035929;28;20044;-68
2022/08/20 06:30:37;;;;;;;11.68;2.25;;;19.10;99.90;;;;;;5052826;28;20033;-69
2022/08/20 06:33:03;;;;;;;7.50;2.13;;;19.60;99.90;;;;;;5053578;28;20037;-68
2022/08/20 06:35:29;;;;;;;7.60;2.00;;;20.10;99.90;;;;;;5048902;28;20087;-69
2022/08/20 06:37:56;;;;;;;8.40;2.25;;;20.50;99.90;;;;;;5029713;28;20599;-69
2022/08/20 06:40:24;;;;;;;9.68;2.00;;;20.90;99.90;;;;;;5052134;28;20052;-69
2022/08/20 06:42:51;;;;;;;11.75;2.45;;;21.20;99.90;;;;;;5051798;28;20097;-69
2022/08/20 06:45:23;;;;;;;7.60;2.00;;;21.50;99.90;;;;;;5034184;28;20037;-69
2022/08/20 06:47:50;;;;;;;8.00;2.15;;;21.70;99.90;;;;;;5034206;28;20127;-69
2022/08/20 06:50:19;;;;;;;7.10;1.93;;;21.70;99.90;;;;;;5055398;28;20041;-69
2022/08/20 06:52:48;;;;;;;7.97;1.90;;;21.50;99.90;;;;;;5053523;28;20299;-69
2022/08/20 06:55:15;;;;;;;11.02;1.85;;;21.20;99.90;;;;;;5054102;28;20056;-69
2022/08/20 06:57:42;;;;;;;7.15;1.88;;;21.00;99.90;;;;;;5037718;28;20041;-69
2022/08/20 07:00:13;;;;;;;6.93;1.50;;;21.00;99.90;;;;;;5063927;28;20056;-69
2022/08/20 07:02:39;;;;;;;10.80;1.90;;;20.80;99.90;;;;;;5051412;28;20123;-68
2022/08/20 07:05:06;;;;;;;7.57;1.88;;;20.90;99.90;;;;;;5073030;28;20047;-68
2022/08/20 07:07:32;;;;;;;7.13;2.05;;;20.90;99.90;;;;;;5073944;28;20036;-69
2022/08/20 07:09:59;;;;;;;7.82;1.60;;;20.80;99.90;;;;;;5078189;28;20368;-70
2022/08/20 07:12:25;;;;;;;;;;;20.80;99.90;;;;;;5070936;28;20045;-71
2022/08/20 07:14:51;;;;;;;7.60;1.70;;;20.70;99.90;;;;;;5077253;28;19961;-70
2022/08/20 07:17:16;;;;;;;9.82;1.58;;;20.60;99.90;;;;;;5054452;28;20048;-70
2022/08/20 07:19:42;;;;;;;6.85;1.80;;;20.50;99.90;;;;;;5073629;28;20033;-69
2022/08/20 07:22:08;;;;;;;9.73;2.20;;;20.50;99.90;;;;;;5071291;28;20408;-69
2022/08/20 07:24:33;;;;;;;6.90;2.00;;;20.50;99.90;;;;;;5071644;28;20432;-70
2022/08/20 07:26:59;;;;;;;5.80;1.73;;;20.50;99.90;;;;;;5070877;28;20065;-70
2022/08/20 07:32:33;;;;;;;6.82;2.00;;;20.50;99.90;;;;;;5052849;28;20048;-70
2022/08/20 07:34:55;;;;;;;9.30;1.92;;;20.50;99.90;;;;;;5070820;28;20048;-70
2022/08/20 07:37:22;;;;;;;8.50;1.75;;;20.60;99.90;;;;;;5068386;28;20044;-71
2022/08/20 07:39:48;;;;;;;11.80;1.73;;;20.60;99.90;;;;;;5047809;28;20047;-70
2022/08/20 07:42:14;;;;;;;10.27;2.17;;;20.70;99.90;;;;;;5058469;28;20037;-69
2022/08/20 07:44:40;;;;;;;7.88;1.77;;;20.60;99.90;;;;;;5061824;28;20392;-69
2022/08/20 07:47:05;;;;;;;9.23;1.67;;;20.50;99.90;;;;;;5032832;28;20048;-68
2022/08/20 07:49:36;;;;;;;6.00;1.50;;;20.30;99.90;;;;;;5072396;28;20098;-68
2022/08/20 07:52:06;;;;;;;6.05;1.70;;;20.20;99.90;;;;;;5068676;28;20048;-69
2022/08/20 07:54:34;;;;;;;6.82;2.13;;;20.10;99.90;;;;;;5071177;28;20044;-69
2022/08/20 07:57:03;;;;;;;;;;;20.20;99.90;;;;;;5070135;28;20046;-70
2022/08/20 07:59:30;;;;;;;4.90;1.75;;;20.20;99.90;;;;;;5063986;28;20004;-70
2022/08/20 08:01:57;;;;;;;10.00;2.15;;;20.20;99.90;;;;;;5034223;28;20136;-70
2022/08/20 08:04:24;;;;;;;7.50;1.90;;;20.30;99.90;;;;;;5056298;28;20041;-70
2022/08/20 08:06:51;;;;;;;6.07;1.75;;;20.50;99.90;;;;;;5049665;28;20108;-69
2022/08/20 08:09:17;;;;;;;6.60;1.45;;;20.70;99.90;;;;;;5037120;28;20095;-70
2022/08/20 08:11:50;;;;;;;6.35;1.70;;;20.80;99.80;;;;;;5026319;28;20439;-71
2022/08/20 08:14:22;;;;;;;8.60;1.77;;;20.90;99.30;;;;;;5039360;28;20098;-70
2022/08/20 08:16:48;;;;;;;7.10;1.90;;;21.00;99.30;;;;;;5046872;28;20044;-69
2022/08/20 08:19:15;;;;;;;6.90;1.80;;;21.10;99.40;;;;;;5031523;28;20439;-70
2022/08/20 08:21:43;;;;;;;8.07;2.13;;;21.20;99.90;;;;;;5049341;28;20041;-69
2022/08/20 08:24:10;;;;;;;7.07;1.60;;;21.40;99.90;;;;;;5032754;28;20119;-70
2022/08/20 08:26:36;;;;;;;5.93;1.73;;;21.60;99.70;;;;;;5047467;28;20037;-69
2022/08/20 08:29:06;;;;;;;12.73;2.25;;;21.70;99.20;;;;;;5048877;28;20292;-70
2022/08/20 08:31:33;;;;;;;10.95;2.22;;;21.90;97.70;;;;;;5049555;28;20037;-69
2022/08/20 08:33:59;;;;;;;10.18;2.00;;;21.90;98.00;;;;;;5030016;28;20044;-69
2022/08/20 08:36:25;;;;;;;8.82;2.22;;;22.00;97.80;;;;;;5034317;28;20040;-70
2022/08/20 08:38:52;;;;;;;8.48;2.28;;;22.00;97.50;;;;;;5051184;28;20056;-70
2022/08/20 08:41:30;;;;;;;7.35;1.73;;;22.10;96.90;;;;;;5049230;28;20060;-70
2022/08/20 08:44:13;;;;;;;8.98;2.03;;;22.20;97.00;;;;;;5049089;28;20041;-71
2022/08/20 08:46:43;;;;;;;8.82;1.70;;;22.30;96.10;;;;;;5046769;28;20064;-70
2022/08/20 08:49:13;;;;;;;9.73;2.40;;;22.20;95.50;;;;;;5032077;28;20041;-70
2022/08/20 08:51:46;;;;;;;7.75;1.90;;;22.00;96.20;;;;;;5013217;28;20037;-70
2022/08/20 08:54:19;;;;;;;6.75;2.45;;;21.80;97.60;;;;;;5048172;28;20071;-70
2022/08/20 08:56:45;;;;;;;8.82;1.75;;;21.70;97.80;;;;;;5029713;28;20400;-71
2022/08/20 08:59:11;;;;;;;7.05;1.85;;;21.70;97.40;;;;;;5034111;28;20052;-70
2022/08/20 09:01:44;;;;;;;6.65;1.88;;;21.80;96.30;;;;;;5070227;28;20468;-67
2022/08/20 09:04:15;;;;;;;6.35;1.70;;;21.90;95.20;;;;;;5058220;28;20036;-70
2022/08/20 09:06:42;;;;;;;13.75;2.35;;;21.90;94.60;;;;;;5042373;28;20055;-69
2022/08/20 09:09:20;;;;;;;7.85;2.03;;;21.90;96.00;;;;;;5066247;28;20047;-70
2022/08/20 09:11:52;;;;;;;6.47;1.90;;;22.10;96.00;;;;;;5070005;28;20044;-69
2022/08/20 09:14:18;;;;;;;6.63;1.80;;;22.30;96.10;;;;;;5051206;28;20139;-70
2022/08/20 09:16:45;;;;;;;5.78;1.58;;;22.60;95.90;;;;;;5033575;28;20502;-70
2022/08/20 09:19:11;;;;;;;6.72;1.77;;;22.80;92.00;;;;;;5067370;28;20063;-70
2022/08/20 09:21:37;;;;;;;7.00;2.10;;;22.90;92.50;;;;;;5050776;28;20037;-71
2022/08/20 09:24:03;;;;;;;8.10;1.90;;;23.00;92.50;;;;;;5068422;28;20369;-70
2022/08/20 09:26:29;;;;;;;8.13;1.90;;;23.00;92.70;;;;;;5059652;28;20465;-71
2022/08/20 09:28:55;;;;;;;5.20;1.80;;;23.10;92.80;;;;;;5046553;28;20058;-69
2022/08/20 09:31:23;;;;;;;6.18;2.00;;;23.10;93.40;;;;;;5066593;28;20483;-69
2022/08/20 09:33:49;;;;;;;4.97;1.60;;;23.20;93.00;;;;;;5052468;28;20053;-69
2022/08/20 09:36:15;;;;;;;8.10;2.20;;;23.20;93.20;;;;;;5065614;28;20091;-72
2022/08/20 09:38:41;;;;;;;12.02;2.33;;;23.30;90.50;;;;;;5035720;28;20072;-72
2022/08/20 09:41:07;;;;;;;5.93;1.98;;;23.20;91.20;;;;;;5065630;28;20372;-71
2022/08/20 09:43:32;;;;;;;10.40;1.88;;;23.10;90.50;;;;;;5051676;28;20042;-71
2022/08/20 09:45:58;;;;;;;8.00;2.30;;;23.20;90.50;;;;;;5048099;28;20044;-71
2022/08/20 09:48:24;;;;;;;8.32;1.95;;;23.20;91.00;;;;;;5051032;28;20052;-69
2022/08/20 09:50:50;;;;;;;6.18;2.00;;;22.90;90.90;;;;;;5070560;28;20059;-71
2022/08/20 09:53:18;;;;;;;8.40;2.35;;;22.80;91.40;;;;;;5034177;28;20033;-69
2022/08/20 09:55:46;;;;;;;7.88;2.08;;;22.70;91.70;;;;;;5062497;28;20048;-71
2022/08/20 09:58:34;;;;;;;9.10;1.88;;;22.60;92.50;;;;;;5047337;28;20052;-71
2022/08/20 10:01:07;;;;;;;7.97;2.00;;;22.80;91.80;;;;;;5032330;28;20041;-70
2022/08/20 10:03:33;;;;;;;10.50;2.00;;;22.80;91.30;;;;;;5044943;28;20678;-72
2022/08/20 10:05:59;;;;;;;8.73;2.03;;;22.60;91.30;;;;;;5010654;28;20429;-71
2022/08/20 10:08:25;;;;;;;7.90;2.20;;;22.50;91.60;;;;;;5015777;28;20433;-71
2022/08/20 10:10:50;;;;;;;12.00;2.22;;;22.40;92.00;;;;;;5035747;28;20124;-69
2022/08/20 10:13:16;;;;;;;8.95;1.80;;;22.60;92.30;;;;;;5048133;28;20119;-70
2022/08/20 10:15:42;;;;;;;11.65;2.08;;;23.00;91.00;;;;;;5043467;28;20120;-70
2022/08/20 10:18:07;;;;;;;11.57;2.30;;;23.00;91.10;;;;;;5036697;28;20044;-70
2022/08/20 10:20:34;;;;;;;6.78;1.75;;;23.00;91.50;;;;;;5036386;28;20052;-69
2022/08/20 10:23:00;;;;;;;7.00;2.00;;;23.00;91.00;;;;;;5054689;28;20095;-70
2022/08/20 10:25:27;;;;;;;11.68;2.20;;;23.00;92.10;;;;;;5036954;28;20044;-69
2022/08/20 10:27:54;;;;;;;8.88;1.73;;;23.20;92.70;;;;;;5055067;28;20045;-70
2022/08/20 10:30:19;;;;;;;8.10;1.90;;;23.50;92.10;;;;;;5055097;28;20404;-70
2022/08/20 10:32:45;;;;;;;10.93;2.30;;;23.70;91.20;;;;;;5055224;28;20033;-70
2022/08/20 10:35:11;;;;;;;6.68;1.90;;;23.80;89.70;;;;;;5036575;28;20072;-70
2022/08/20 10:37:37;;;;;;;9.60;2.03;;;23.70;90.10;;;;;;5050176;28;20108;-69
2022/08/20 10:40:03;;;;;;;8.52;1.88;;;23.70;91.20;;;;;;5040066;28;20026;-69
2022/08/20 10:42:29;;;;;;;14.73;2.17;;;24.00;90.50;;;;;;5017186;28;20049;-70
2022/08/20 10:44:55;;;;;;;7.13;1.80;;;24.20;86.90;;;;;;5034781;28;20044;-69
2022/08/20 10:47:28;;;;;;;8.25;2.15;;;24.10;85.70;;;;;;5034875;28;20042;-69
2022/08/20 10:49:55;;;;;;;11.63;2.17;;;24.00;86.90;;;;;;5039598;28;20040;-69
2022/08/20 10:52:21;;;;;;;;;;;23.80;89.50;;;;;;5034186;28;20079;-70
2022/08/20 10:54:47;;;;;;;7.32;2.20;;;23.70;89.70;;;;;;5029293;28;19948;-73
2022/08/20 10:57:24;;;;;;;10.43;2.40;;;23.90;87.90;;;;;;5042085;28;20132;-72
2022/08/20 10:59:51;;;;;;;7.18;2.30;;;23.80;87.40;;;;;;5049928;28;20048;-72
2022/08/20 11:02:18;;;;;;;6.80;2.10;;;23.70;85.80;;;;;;5029922;28;20465;-73
2022/08/20 11:04:46;;;;;;;7.95;2.30;;;23.40;86.40;;;;;;5050228;28;20037;-71
2022/08/20 11:07:15;;;;;;;7.70;2.10;;;23.40;87.80;;;;;;5051358;28;20076;-70
2022/08/20 11:09:42;;;;;;;9.63;2.47;;;23.30;88.40;;;;;;5045050;28;20040;-71
2022/08/20 11:12:08;;;;;;;11.98;2.70;;;23.50;87.00;;;;;;5052843;28;20044;-71
2022/08/20 11:14:34;;;;;;;7.72;1.95;;;23.60;87.20;;;;;;5048398;28;20045;-71
2022/08/20 11:17:01;;;;;;;8.50;2.35;;;23.60;87.20;;;;;;5051980;28;20049;-70
2022/08/20 11:19:28;;;;;;;9.03;2.30;;;23.60;85.80;;;;;;5052128;28;20041;-70
2022/08/20 11:21:54;;;;;;;9.63;2.40;;;23.60;86.80;;;;;;5048795;28;20166;-70
2022/08/20 11:24:20;;;;;;;9.25;2.13;;;23.80;87.20;;;;;;5025179;28;20480;-71
2022/08/20 11:26:47;;;;;;;9.05;2.78;;;24.10;86.10;;;;;;5035380;28;20045;-69
2022/08/20 11:29:13;;;;;;;7.97;2.00;;;24.10;86.50;;;;;;5027239;28;20519;-69
2022/08/20 11:31:39;;;;;;;6.30;2.03;;;24.10;88.10;;;;;;5030641;28;20049;-69
2022/08/20 11:34:05;;;;;;;8.45;1.98;;;24.10;88.40;;;;;;5051998;28;20036;-68
2022/08/20 11:36:31;;;;;;;7.15;2.08;;;24.10;86.20;;;;;;5048636;28;20048;-68
2022/08/20 11:38:57;;;;;;;7.97;2.00;;;24.00;81.90;;;;;;5046449;28;20073;-72
2022/08/20 11:41:23;;;;;;;7.78;1.98;;;24.20;82.90;;;;;;5015847;28;20527;-71
2022/08/20 11:43:48;;;;;;;8.75;2.30;;;24.50;85.90;;;;;;5049528;28;20582;-71
2022/08/20 11:46:14;;;;;;;16.02;2.20;;;24.80;84.00;;;;;;5044343;28;20095;-71
2022/08/20 11:48:39;;;;;;;8.65;1.98;;;25.40;86.70;;;;;;5051316;28;20033;-72
2022/08/20 11:51:05;;;;;;;7.18;1.95;;;25.80;84.30;;;;;;5050060;28;20086;-73
2022/08/20 11:53:31;;;;;;;9.68;2.35;;;26.40;84.90;;;;;;5050683;28;20116;-73
2022/08/20 11:55:57;;;;;;;4.55;1.42;;;26.70;79.70;;;;;;5045853;28;20049;-72
2022/08/20 11:58:22;;;;;;;9.38;2.10;;;26.70;77.70;;;;;;5052557;28;20033;-72
2022/08/20 12:00:48;;;;;;;7.20;1.75;;;26.90;79.40;;;;;;5051644;28;20088;-72
2022/08/20 12:03:14;;;;;;;4.80;2.00;;;27.10;78.60;;;;;;5071013;28;20399;-72
2022/08/20 12:05:43;;;;;;;7.63;2.00;;;27.20;77.50;;;;;;5045187;28;20101;-73
2022/08/20 12:08:13;;;;;;;6.15;1.67;;;27.40;77.10;;;;;;5049839;28;20037;-75
2022/08/20 12:10:39;;;;;;;;;;;27.50;75.20;;;;;;5031897;28;20499;-72
2022/08/20 12:13:06;;;;;;;8.63;2.63;;;27.00;71.80;;;;;;5052395;28;19935;-73
2022/08/20 12:15:34;;;;;;;19.08;2.53;;;26.40;73.90;;;;;;5040282;28;20041;-73
2022/08/20 12:18:00;;;;;;;6.78;1.90;;;25.90;76.20;;;;;;5027926;28;20060;-72
2022/08/20 12:20:26;;;;;;;6.20;2.20;;;25.60;76.90;;;;;;5036658;28;20508;-71
2022/08/20 12:22:52;;;;;;;6.35;2.40;;;25.40;75.90;;;;;;5030866;28;20087;-72
2022/08/20 12:25:18;;;;;;;7.85;1.90;;;25.10;76.60;;;;;;5007278;28;20476;-74
2022/08/20 12:27:44;;;;;;;8.77;2.13;;;25.30;77.20;;;;;;5040621;28;20243;-73
2022/08/20 12:30:14;;;;;;;8.80;1.98;;;25.40;78.20;;;;;;5049819;28;20075;-71
2022/08/20 12:32:41;;;;;;;8.20;1.80;;;25.70;79.30;;;;;;5037656;28;20037;-73
2022/08/20 12:35:07;;;;;;;6.72;1.90;;;25.70;75.10;;;;;;5052565;28;20048;-73
2022/08/20 12:37:33;;;;;;;9.18;2.47;;;25.90;75.70;;;;;;5052733;28;20496;-72
2022/08/20 12:40:03;;;;;;;10.77;2.35;;;26.20;72.90;;;;;;5035768;28;20454;-73
2022/08/20 12:42:31;;;;;;;8.82;2.10;;;26.50;72.60;;;;;;5044989;28;20063;-74
2022/08/20 12:44:58;;;;;;;7.18;2.20;;;26.60;74.30;;;;;;5032925;28;20473;-73
2022/08/20 12:47:27;;;;;;;12.00;2.50;;;26.60;72.10;;;;;;5052095;28;20408;-72
2022/08/20 12:49:57;;;;;;;11.02;2.13;;;26.70;73.60;;;;;;5024006;28;20041;-71
2022/08/20 12:52:24;;;;;;;6.47;2.05;;;27.30;74.70;;;;;;5050755;28;20049;-73
2022/08/20 12:54:50;;;;;;;12.85;3.00;;;27.60;73.40;;;;;;5033283;28;20049;-71